createdAt,value
2019-04-06T09:25:50.845Z,8260.00
2019-04-06T09:31:28.865Z,6944.00
2019-04-06T09:32:28.948Z,6820.00
2019-04-06T09:33:28.852Z,6856.00
2019-04-06T09:35:28.870Z,6664.00
2019-04-06T09:36:28.854Z,6852.00
2019-04-06T09:37:28.840Z,6880.00
2019-04-06T09:38:28.835Z,6196.00
2019-04-06T09:39:28.833Z,5948.00
2019-04-06T09:40:28.961Z,6464.00
2019-04-06T09:41:28.833Z,5932.00
2019-04-06T09:42:28.825Z,6212.00
2019-04-06T09:43:28.824Z,6272.00
2019-04-06T09:44:28.828Z,5424.00
2019-04-06T09:45:28.820Z,5032.00
2019-04-06T09:46:28.816Z,6120.00
2019-04-06T09:47:28.979Z,6672.00
2019-04-06T09:49:29.011Z,5936.00
2019-04-06T09:50:28.901Z,6352.00
2019-04-06T09:51:29.151Z,6896.00
2019-04-06T09:52:29.132Z,7980.00
2019-04-06T09:53:28.882Z,8252.00
2019-04-06T09:54:29.137Z,8328.00
2019-04-06T09:55:28.791Z,7840.00
2019-04-06T09:56:28.790Z,7364.00
2019-04-06T09:57:28.787Z,7268.00
2019-04-06T09:58:28.794Z,7136.00
2019-04-06T09:59:35.207Z,7144.00
2019-04-06T10:00:28.878Z,7208.00
2019-04-06T10:01:38.052Z,7296.00
2019-04-06T10:02:29.139Z,7464.00
2019-04-06T10:03:28.871Z,7600.00
2019-04-06T10:04:28.768Z,7768.00
2019-04-06T10:05:28.764Z,7896.00
2019-04-06T10:06:28.941Z,8152.00
2019-04-06T10:07:28.758Z,8144.00
2019-04-06T10:08:28.759Z,7744.00
2019-04-06T10:09:28.755Z,7708.00
2019-04-06T10:10:28.754Z,8872.00
2019-04-06T10:11:28.749Z,10852.00
2019-04-06T10:12:28.751Z,9636.00
2019-04-06T10:13:28.745Z,7396.00
2019-04-06T10:14:28.744Z,10084.00
2019-04-06T10:15:28.739Z,8352.00
2019-04-06T10:16:28.739Z,7596.00
2019-04-06T10:17:28.735Z,7428.00
2019-04-06T10:18:28.747Z,7484.00
2019-04-06T10:20:28.729Z,7432.00
2019-04-06T10:27:51.039Z,8192.00
2019-04-06T10:28:51.057Z,8592.00
2019-04-06T10:29:51.052Z,8808.00
2019-04-06T10:30:53.564Z,12904.00
2019-04-06T10:31:51.026Z,15264.00
2019-04-06T10:32:51.027Z,15456.00
2019-04-06T10:33:51.023Z,14336.00
2019-04-06T10:34:51.059Z,14488.00
2019-04-06T10:35:51.020Z,8080.00
2019-04-06T10:36:51.024Z,8016.00
2019-04-06T10:37:51.019Z,7928.00
2019-04-06T10:38:51.020Z,7820.00
2019-04-06T10:39:51.260Z,7908.00
2019-04-06T10:40:51.031Z,14596.00
2019-04-06T10:41:51.038Z,7348.00
2019-04-06T10:42:51.019Z,7508.00
2019-04-06T10:43:51.014Z,7148.00
2019-04-06T10:44:51.183Z,7624.00
2019-04-06T10:45:51.017Z,7492.00
2019-04-06T10:46:51.016Z,7064.00
2019-04-06T10:47:51.120Z,12124.00
2019-04-06T10:48:51.015Z,19936.00
2019-04-06T10:49:51.014Z,20448.00
2019-04-06T10:50:51.016Z,17856.00
